Main page
METAR-TAF:

METAR-TAF

Airports :

Campbeltown Airport

Campbeltown, Scotland

latitude: 55-26-14N, longitude: 005-41-11W, elevation: 13 m

Current weather observation

The report was made 17 hours and 55 minutes ago, at 16:50 UTC
Wind 11 kt from the West/Northwest
Temperature 13°C
Humidity 88%
Pressure 1017 hPa
Visibility 10 km or more
Few clouds at a height of 3100 ft

METAR: EGEC 111650Z 30011KT 9999 FEW031 13/11 Q1017

Time: 11:45 (10:45 UTC)

Forecast

The report was made 20 hours and 44 minutes ago, at 14:01 UTC
Forecast valid from 11 at 15 UTC to 11 at 17 UTC
Wind 12 kt from the West
Visibility 10 km or more
Scattered clouds at a height of 3000 ft

TAF: EGEC 111401Z 1115/1117 27012KT 9999 SCT030

Weather observations and forecasts of more than 4000 airports (METAR and TAF reports).

The available stations are represented by yellow and red dots on the map.

Hover mouse over dot to see the name of the station.

Then click to see weather observations and forecasts.

To change the map : click on the green buttons with a black cross to zoom in, on the green button with a dash to zoom out, or on the green arrows for adjacent maps.


METAR-TAF: